KGCN/GCN METAR and TAF weather

Enter ICAO airport designator
Station Type Date Time Source
KGCN METAR 2021/09/24 00:54 UTC NOAA

KGCN 240054Z 19007KT 10SM CLR 19/02 A3019 RMK AO2 SLP161 T01890022


Station Type Date Time Source
KGCN Decoded METAR 2021/09/24 00:54 UTC NOAA

GRAND CANYON NATL PARK AIRPORT , AZ, United States (KGCN) 35-57N 112-09W 2016M
Sep 23, 2021 - 08:54 PM EDT / 2021.09.24 0054 UTC
Wind: from the S (190 degrees) at 8 MPH (7 KT):0
Visibility: 10 mile(s):0
Sky conditions: clear
Temperature: 66.0 F (18.9 C)
Dew Point: 36.0 F (2.2 C)
Relative Humidity: 32%
Pressure (altimeter): 30.19 in. Hg (1022 hPa)
ob: KGCN 240054Z 19007KT 10SM CLR 19/02 A3019 RMK AO2 SLP161 T01890022
cycle: 1

Station Type Date Time Source
KGCN TAF 2021/09/24 00:12 UTC NOAA

TAF
AMD KGCN 240009Z 2400/2424 VRB05KT P6SM VCSH BKN100 BKN250
TEMPO 2400/2401 VRB15G25KT
FM240100 VRB05KT P6SM BKN100
FM241600 10007KT P6SM SCT100 BKN250

Example: see airport list